Home > Products > Valid Products > MTR

000
SAUS46 KSGX 301553
MTRCZZ
METAR KCZZ 301552Z AUTO 00000KT 29/05 A2989 RMK AO1 SLP084 T02890050





000
SAUS46 KSGX 301552
MTRSAN
METAR KSAN 301551Z 27004KT 8SM BKN011 21/17 A2985 RMK AO2 SLP109
T02110172 $





000
SAUS46 KSGX 301453
MTRCZZ
METAR KCZZ 301452Z AUTO 06005KT 22/06 A2990 RMK AO1 SLP090 T02170056
51006





000
SAUS46 KSGX 301452
MTRSAN
METAR KSAN 301451Z 18003KT 7SM BKN011 21/17 A2985 RMK AO2 SLP107
T02060172 53007 $





000
SAUS46 KSGX 301353
MTRCZZ
METAR KCZZ 301352Z AUTO 05007KT 14/05 A2990 RMK AO1 SLP092 T01440050





000
SAUS46 KSGX 301352
MTRSAN
METAR KSAN 301351Z 00000KT 8SM BKN011 21/17 A2984 RMK AO2 SLP105
T02060172 $





000
SAUS46 KSGX 301253
MTRCZZ
METAR KCZZ 301252Z AUTO 06005KT 15/06 A2988 RMK AO1 SLP085 T01500056





000
SAUS46 KSGX 301253
MTRSAN
METAR KSAN 301251Z 00000KT 9SM OVC011 21/17 A2983 RMK AO2 SLP101
T02060172 $





000
SAUS46 KSGX 301153
MTRCZZ
METAR KCZZ 301152Z AUTO 05004KT 14/06 A2988 RMK AO1 SLP082 T01390061
10189 20128 56004





000
SAUS46 KSGX 301152
MTRSAN
METAR KSAN 301151Z 00000KT 9SM OVC011 21/17 A2983 RMK AO2 SLP100
T02060172 10211 20200 55001 $





000
SAUS46 KSGX 301053
MTRCZZ
METAR KCZZ 301052Z AUTO 04005KT 15/07 A2988 RMK AO1 SLP081 T01500067





000
SAUS46 KSGX 301052
MTRSAN
METAR KSAN 301051Z 00000KT 10SM BKN011 20/17 A2983 RMK AO2 SLP100
T02000172 $





000
SAUS46 KSGX 301039
MTRSAN
SPECI KSAN 301038Z 31003KT 10SM BKN011 20/17 A2983 RMK AO2 $





000
SAUS46 KSGX 300953
MTRCZZ
METAR KCZZ 300952Z AUTO 04006KT 15/07 A2989 RMK AO1 SLP083 T01500072





000
SAUS46 KSGX 300952
MTRSAN
METAR KSAN 300951Z 30003KT 10SM SCT011 20/17 A2982 RMK AO2 SLP099
T02000172 $





000
SAUS46 KSGX 300928
MTRSAN
SPECI KSAN 300927Z 00000KT 10SM SCT011 21/17 A2983 RMK AO2 $





000
SAUS46 KSGX 300907
MTRSAN
SPECI KSAN 300906Z 00000KT 10SM BKN011 21/17 A2983 RMK AO2 $





000
SAUS46 KSGX 300853
MTRCZZ
METAR KCZZ 300852Z AUTO 04005KT 16/08 A2989 RMK AO1 SLP085 T01560078
58004





000
SAUS46 KSGX 300852
MTRSAN
METAR KSAN 300851Z 00000KT 10SM SCT011 21/17 A2983 RMK AO2 SLP102
T02060172 58009 $





000
SAUS46 KSGX 300759
MTRSAN
SPECI KSAN 300758Z 00000KT 10SM SCT011 21/17 A2985 RMK AO2 $





000
SAUS46 KSGX 300753
MTRCZZ
METAR KCZZ 300752Z AUTO 05005KT 17/08 A2990 RMK AO1 SLP087 T01670083
403610128





000
SAUS46 KSGX 300752
MTRSAN
METAR KSAN 300751Z 05003KT 10SM BKN011 21/17 A2985 RMK AO2 SLP106
T02110172 402610211 $





000
SAUS46 KSGX 300653
MTRCZZ
METAR KCZZ 300652Z AUTO 04006KT 17/09 A2990 RMK AO1 SLP088 T01670089





000
SAUS46 KSGX 300652
MTRSAN
METAR KSAN 300651Z 29004KT 10SM BKN011 21/17 A2985 RMK AO2 SLP107
T02110172 $





000
SAUS46 KSGX 300553
MTRCZZ
METAR KCZZ 300552Z AUTO 03003KT 19/09 A2991 RMK AO1 SLP090 T01890094
10344 20183 50006





000
SAUS46 KSGX 300552
MTRSAN
METAR KSAN 300551Z 28004KT 10SM BKN011 21/18 A2986 RMK AO2 SLP111
T02110178 10244 20211 51006 $





000
SAUS46 KSGX 300510
MTRSAN
SPECI KSAN 300509Z 28005KT 10SM BKN011 22/18 A2986 RMK AO2 $





000
SAUS46 KSGX 300453
MTRCZZ
METAR KCZZ 300452Z AUTO 03004KT 19/10 A2991 RMK AO1 SLP092 T01940100





000
SAUS46 KSGX 300452
MTRSAN
METAR KSAN 300451Z 29005KT 10SM SCT011 22/18 A2985 RMK AO2 SLP109
T02170178 $





000
SAUS46 KSGX 300353
MTRCZZ
METAR KCZZ 300352Z AUTO 00000KT 21/11 A2990 RMK AO1 SLP091 T02110106





000
SAUS46 KSGX 300352
MTRSAN
METAR KSAN 300351Z 31006KT 10SM FEW010 22/18 A2985 RMK AO2 SLP107
T02170178 $





000
SAUS46 KSGX 300253
MTRCZZ
METAR KCZZ 300252Z AUTO 20005KT 24/12 A2989 RMK AO1 SLP087 T02440117
53007





000
SAUS46 KSGX 300252
MTRSAN
METAR KSAN 300251Z 31007KT 10SM FEW012 22/18 A2984 RMK AO2 SLP105
T02170178 53001 $





000
SAUS46 KSGX 300153
MTRCZZ
METAR KCZZ 300152Z AUTO 22010KT 28/11 A2987 RMK AO1 SLP083 T02830111





000
SAUS46 KSGX 300152
MTRSAN
METAR KSAN 300151Z 32009KT 10SM FEW012 23/17 A2983 RMK AO2 SLP100
T02280172 $





000
SAUS46 KSGX 300055
MTRCZZ
METAR KCZZ 300052Z AUTO 26010KT 33/06 A2987 RMK AO1 SLP078 T03280056





000
SAUS46 KSGX 300052
MTRSAN
METAR KSAN 300051Z 30009KT 10SM FEW012 24/17 A2982 RMK AO2 SLP099
T02390172





000
SAUS46 KSGX 292353
MTRCZZ
METAR KCZZ 292352Z AUTO 30012KT 34/05 A2987 RMK AO1 SLP077 T03440050
10361 20317 55007





000
SAUS46 KSGX 292352
MTRSAN
METAR KSAN 292351Z 29011KT 10SM FEW012 24/17 A2984 RMK AO2 SLP104
T02440172 10261 20244 56008





000
SAUS46 KSGX 292253
MTRCZZ
METAR KCZZ 292252Z AUTO 30012G20KT 36/06 A2986 RMK AO1 SLP076
T03560061





000
SAUS46 KSGX 292252
MTRSAN
METAR KSAN 292251Z 31008KT 10SM FEW012 24/18 A2984 RMK AO2 SLP105
T02440178





000
SAUS46 KSGX 292153
MTRCZZ
METAR KCZZ 292152Z AUTO 28011G21KT 36/05 A2987 RMK AO1 SLP078
T03560050





000
SAUS46 KSGX 292152
MTRSAN
METAR KSAN 292151Z 29010KT 10SM FEW012 26/18 A2985 RMK AO2 SLP108
T02560183





000
SAUS46 KSGX 292053
MTRCZZ
METAR KCZZ 292052Z AUTO 25014KT 36/07 A2989 RMK AO1 SLP082 T03560072
56017





000
SAUS46 KSGX 292052
MTRSAN
METAR KSAN 292051Z 32011KT 10SM FEW012 26/18 A2986 RMK AO2 SLP112
T02560183 58012





000
SAUS46 KSGX 291953
MTRCZZ
METAR KCZZ 291952Z AUTO 23015KT 35/07 A2990 RMK AO1 SLP088 T03500067





000
SAUS46 KSGX 291952
MTRSAN
METAR KSAN 291951Z 30008KT 10SM FEW012 26/18 A2988 RMK AO2 SLP118
T02610183





000
SAUS46 KSGX 291853
MTRCZZ
METAR KCZZ 291852Z AUTO 21013KT 33/08 A2992 RMK AO1 SLP094 T03330078





000
SAUS46 KSGX 291852
MTRSAN
METAR KSAN 291851Z 32008KT 10SM FEW012 26/18 A2989 RMK AO2 SLP121
T02560183





000
SAUS46 KSGX 291753
MTRCZZ
METAR KCZZ 291752Z AUTO 21010KT 32/08 A2994 RMK AO1 SLP103 T03170078
10317 20128 57004





000
SAUS46 KSGX 291752
MTRSAN
METAR KSAN 291751Z 33006KT 10SM FEW012 25/18 A2990 RMK AO2 SLP124
T02500178 10256 20211 58001





000
SAUS46 KSGX 291653
MTRCZZ
METAR KCZZ 291652Z AUTO 21007KT 31/08 A2995 RMK AO1 SLP103 T03060078





000
SAUS46 KSGX 291652
MTRSAN
METAR KSAN 291651Z 32003KT 10SM FEW012 24/18 A2990 RMK AO2 SLP126
T02440183 $





000
SAUS46 KSGX 291553
MTRSAN
METAR KSAN 291551Z 00000KT 10SM SCT012 24/18 A2990 RMK AO2 SLP126
T02390183





000
SAUS46 KSGX 291553
MTRCZZ
METAR KCZZ 291552Z AUTO 00000KT 27/08 A2995 RMK AO1 SLP104 T02670083





000
SAUS46 KSGX 291544
MTRSAN
SPECI KSAN 291543Z 00000KT 9SM SCT012 23/19 A2991 RMK AO2





000
SAUS46 KSGX 291528
MTRSAN
SPECI KSAN 291526Z 30003KT 9SM BKN010 23/19 A2990 RMK AO2





000
SAUS46 KSGX 291453
MTRCZZ
METAR KCZZ 291452Z AUTO 00000KT 21/08 A2996 RMK AO1 SLP109 T02060083
50004





000
SAUS46 KSGX 291452
MTRSAN
METAR KSAN 291451Z 00000KT 8SM BKN008 22/18 A2990 RMK AO2 SLP125
T02220183 53008





000
SAUS46 KSGX 291442
MTRSAN
SPECI KSAN 291441Z 00000KT 8SM SCT008 22/18 A2990 RMK AO2





000
SAUS46 KSGX 291353
MTRCZZ
METAR KCZZ 291352Z AUTO 04003KT 13/07 A2996 RMK AO1 SLP113 T01330067





000
SAUS46 KSGX 291352
MTRSAN
METAR KSAN 291351Z 00000KT 9SM SCT010 22/17 A2989 RMK AO2 SLP121
T02170172





000
SAUS46 KSGX 291347
MTRSAN
METAR KSAN 291251Z COR 00000KT 9SM FEW010 22/18 A2987 RMK AO2 SLP115
T02170183





000
SAUS46 KSGX 291253
MTRCZZ
METAR KCZZ 291252Z AUTO 05005KT 14/07 A2995 RMK AO1 SLP108 T01440072





000
SAUS46 KSGX 291252
MTRSAN
METAR KSAN 291251Z 00000KT 9SM CLR 22/18 A2987 RMK AO2 SLP115
T02170183





000
SAUS46 KSGX 291153
MTRCZZ
METAR KCZZ 291152Z AUTO 06006KT 14/07 A2994 RMK AO1 SLP105 T01390072
10183 20139 56008





000
SAUS46 KSGX 291152
MTRSAN
METAR KSAN 291151Z 00000KT 9SM FEW010 22/19 A2988 RMK AO2 SLP116
T02170189 10233 20217 58007





000
SAUS46 KSGX 291053
MTRCZZ
METAR KCZZ 291052Z AUTO 06007KT 14/07 A2995 RMK AO1 SLP106 T01440072





000
SAUS46 KSGX 291052
MTRSAN
METAR KSAN 291051Z 36003KT 7SM FEW010 22/19 A2988 RMK AO2 SLP118
T02170194





000
SAUS46 KSGX 290953
MTRCZZ
METAR KCZZ 290952Z AUTO 04004KT 16/08 A2996 RMK AO1 SLP107 T01560078





000
SAUS46 KSGX 290952
MTRSAN
METAR KSAN 290951Z 00000KT 9SM FEW010 22/19 A2989 RMK AO2 SLP122
T02220194





000
SAUS46 KSGX 290853
MTRCZZ
METAR KCZZ 290852Z AUTO 05004KT 16/08 A2997 RMK AO1 SLP109 T01610078
58008





000
SAUS46 KSGX 290852
MTRSAN
METAR KSAN 290851Z 30003KT 9SM CLR 22/19 A2990 RMK AO2 SLP123
T02220189 58010





000
SAUS46 KSGX 290753
MTRCZZ
METAR KCZZ 290752Z AUTO 05006KT 17/08 A2998 RMK AO1 SLP113 T01670078
403670133





000
SAUS46 KSGX 290752
MTRSAN
METAR KSAN 290751Z 00000KT 10SM CLR 23/19 A2991 RMK AO2 SLP127
T02280194 402940222





000
SAUS46 KSGX 290653
MTRCZZ
METAR KCZZ 290652Z AUTO 05005KT 18/08 A2999 RMK AO1 SLP116 T01780078





000
SAUS46 KSGX 290652
MTRSAN
METAR KSAN 290651Z 33005KT 10SM CLR 23/19 A2992 RMK AO2 SLP130
T02280189





000
SAUS46 KSGX 290553
MTRCZZ
METAR KCZZ 290552Z AUTO 04003KT 17/08 A3000 RMK AO1 SLP121 T01670078
10322 20167 51004





000
SAUS46 KSGX 290552
MTRSAN
METAR KSAN 290551Z 30005KT 10SM CLR 23/19 A2993 RMK AO2 SLP133
T02330189 10283 20233 50003





000
SAUS46 KSGX 290453
MTRCZZ
METAR KCZZ 290452Z AUTO 00000KT 20/08 A2999 RMK AO1 SLP121 T02000083





000
SAUS46 KSGX 290452
MTRSAN
METAR KSAN 290451Z 29004KT 10SM CLR 24/18 A2993 RMK AO2 SLP134
T02390178





000
SAUS46 KSGX 290353
MTRCZZ
METAR KCZZ 290352Z AUTO 00000KT 24/09 A2999 RMK AO1 SLP118 T02440094





000
SAUS46 KSGX 290352
MTRSAN
METAR KSAN 290351Z 31004KT 10SM CLR 24/18 A2992 RMK AO2 SLP131
T02440178





000
SAUS46 KSGX 290253
MTRCZZ
METAR KCZZ 290252Z AUTO 27004KT 26/10 A2998 RMK AO1 SLP118 T02610100
53007





000
SAUS46 KSGX 290252
MTRSAN
METAR KSAN 290251Z 29003KT 10SM CLR 25/17 A2992 RMK AO2 SLP130
T02500172 53000





000
SAUS46 KSGX 290153
MTRCZZ
METAR KCZZ 290152Z AUTO VRB06KT 28/09 A2997 RMK AO1 SLP117 T02830094





000
SAUS46 KSGX 290152
MTRSAN
METAR KSAN 290151Z 30005KT 10SM CLR 26/17 A2991 RMK AO2 SLP128
T02610167





000
SAUS46 KSGX 290053
MTRCZZ
METAR KCZZ 290052Z AUTO 29013G19KT 30/09 A2996 RMK AO1 SLP113
T03000094





000
SAUS46 KSGX 290052
MTRSAN
METAR KSAN 290051Z 31007KT 10SM CLR 28/13 A2991 RMK AO2 SLP128
T02830128





000
SAUS46 KSGX 282353
MTRCZZ
METAR KCZZ 282352Z AUTO 30014G21KT 33/08 A2996 RMK AO1 SLP110
T03280078 10367 20328 56005





000
SAUS46 KSGX 282352
MTRSAN
METAR KSAN 282351Z 30009KT 10SM CLR 28/16 A2992 RMK AO2 SLP130
T02780161 10294 20272 55009





000
SAUS46 KSGX 282253
MTRCZZ
METAR KCZZ 282252Z AUTO 29011G20KT 33/07 A2996 RMK AO1 SLP111
T03330072





000
SAUS46 KSGX 282252
MTRSAN
METAR KSAN 282251Z 31010KT 10SM CLR 28/16 A2992 RMK AO2 SLP130
T02780161





000
SAUS46 KSGX 282153
MTRCZZ
METAR KCZZ 282152Z AUTO 29013G21KT 35/08 A2996 RMK AO1 PK WND
27028/2128 SLP109 T03500078





000
SAUS46 KSGX 282152
MTRSAN
METAR KSAN 282151Z 30011KT 10SM CLR 28/17 A2993 RMK AO2 SLP133
T02830172





000
SAUS46 KSGX 282053
MTRCZZ
METAR KCZZ 282052Z AUTO 28012G22KT 36/06 A2997 RMK AO1 SLP113
T03560061 56018





000
SAUS46 KSGX 282052
MTRSAN
METAR KSAN 282051Z 30013KT 10SM CLR 29/16 A2994 RMK AO2 SLP139
T02940156 56013





000
SAUS46 KSGX 281953
MTRCZZ
METAR KCZZ 281952Z AUTO 28013G21KT 36/02 A2999 RMK AO1 SLP116
T03610022





000
SAUS46 KSGX 281952
MTRSAN
METAR KSAN 281951Z 31012KT 10SM CLR 29/14 A2995 RMK AO2 SLP141
T02890139





000
SAUS46 KSGX 281853
MTRCZZ
METAR KCZZ 281852Z AUTO 29014KT 36/06 A3001 RMK AO1 SLP123 T03610056





000
SAUS46 KSGX 281852
MTRSAN
METAR KSAN 281851Z 30015KT 10SM CLR 28/11 A2997 RMK AO2 SLP148
T02830111





000
SAUS46 KSGX 281753
MTRCZZ
METAR KCZZ 281752Z AUTO 21007KT 160V240 33/07 A3003 RMK AO1 SLP132
T03330072 10333 20133 58013





000
SAUS46 KSGX 281752
MTRSAN
METAR KSAN 281751Z 29009KT 10SM CLR 28/14 A2998 RMK AO2 SLP152
T02830144 10289 20222 58005





000
SAUS46 KSGX 281653
MTRCZZ
METAR KCZZ 281652Z AUTO 12003KT 29/09 A3005 RMK AO1 SLP140 T02890089





000
SAUS46 KSGX 281652
MTRSAN
METAR KSAN 281651Z 29008KT 10SM CLR 28/16 A2999 RMK AO2 SLP155
T02830156





000
SAUS46 KSGX 281553
MTRCZZ
METAR KCZZ 281552Z AUTO 00000KT 26/10 A3006 RMK AO1 SLP145 T02610100





000
SAUS46 KSGX 281552
MTRSAN
METAR KSAN 281551Z 32004KT 10SM CLR 27/13 A3000 RMK AO2 SLP157
T02670133





000
SAUS46 KSGX 281453
MTRCZZ
METAR KCZZ 281452Z AUTO 00000KT 20/09 A3007 RMK AO1 SLP150 T02000094
50003





000
SAUS46 KSGX 281452
MTRSAN
METAR KSAN 281451Z 35003KT 10SM CLR 24/15 A3000 RMK AO2 SLP157
T02390150 50002





000
SAUS46 KSGX 281353
MTRCZZ
METAR KCZZ 281352Z AUTO 03005KT 14/08 A3008 RMK AO1 SLP154 T01440078





000
SAUS46 KSGX 281352
MTRSAN
METAR KSAN 281351Z 00000KT 10SM CLR 23/17 A3000 RMK AO2 SLP159
T02280167 $





000
SAUS46 KSGX 281258
MTRCZZ
METAR KCZZ 281252Z AUTO 06005KT 14/07 A3007 RMK AO1 SLP149 T01390072





000
SAUS46 KSGX 281255
MTRSAN
METAR KSAN 281251Z 00000KT 10SM CLR 23/17 A3000 RMK AO2 SLP159
T02280167 $





000
SAUS46 KSGX 281158
MTRCZZ
METAR KCZZ 281152Z AUTO 04005KT 14/07 A3006 RMK AO1 SLP146 T01390072
10189 20133 56006





000
SAUS46 KSGX 281156
MTRSAN
METAR KSAN 281151Z 00000KT 10SM CLR 23/16 A2999 RMK AO2 SLP156
T02280161 10261 20228 56008 $





000
SAUS46 KSGX 281058
MTRCZZ
METAR KCZZ 281052Z AUTO 04005KT 14/07 A3007 RMK AO1 SLP147 T01440067





000
SAUS46 KSGX 281055
MTRSAN
METAR KSAN 281051Z 00000KT 10SM CLR 23/16 A3000 RMK AO2 SLP158
T02280161 $





000
SAUS46 KSGX 280958
MTRCZZ
METAR KCZZ 280952Z AUTO 05005KT 14/07 A3007 RMK AO1 SLP149 T01440067





000
SAUS46 KSGX 280955
MTRSAN
METAR KSAN 280951Z 01003KT 10SM CLR 23/16 A3000 RMK AO2 SLP160
T02330156 $





000
SAUS46 KSGX 280858
MTRCZZ
METAR KCZZ 280852Z AUTO 05005KT 16/07 A3008 RMK AO1 SLP151 T01560067
58001





000
SAUS46 KSGX 280855
MTRSAN
METAR KSAN 280851Z 36003KT 10SM CLR 24/13 A3002 RMK AO2 SLP164
T02390133 50001 $





000
SAUS46 KSGX 280758
MTRCZZ
METAR KCZZ 280752Z AUTO 04005KT 16/07 A3009 RMK AO1 SLP152 T01610072
403440111





000
SAUS46 KSGX 280756
MTRSAN
METAR KSAN 280751Z 31003KT 10SM CLR 24/11 A3002 RMK AO2 SLP166
T02440111 402890211 $





000
SAUS46 KSGX 280658
MTRCZZ
METAR KCZZ 280652Z AUTO 03004KT 17/07 A3009 RMK AO1 SLP153 T01670067





000
SAUS46 KSGX 280655
MTRSAN
METAR KSAN 280651Z 34004KT 10SM CLR 26/10 A3001 RMK AO2 SLP163
T02560100 $





000
SAUS46 KSGX 280558
MTRCZZ
METAR KCZZ 280552Z AUTO 00000KT 19/07 A3008 RMK AO1 SLP151 T01890067
10328 20189 51009





000
SAUS46 KSGX 280556
MTRSAN
METAR KSAN 280551Z 35006KT 10SM CLR 26/09 A3001 RMK AO2 SLP163
T02610089 10289 20256 51009 $





000
SAUS46 KSGX 280458
MTRCZZ
METAR KCZZ 280452Z AUTO 00000KT 21/07 A3008 RMK AO1 SLP151 T02110072





000
SAUS46 KSGX 280455
MTRSAN
METAR KSAN 280451Z 34006KT 10SM CLR 27/11 A3001 RMK AO2 SLP163
T02670106 $





000
SAUS46 KSGX 280358
MTRCZZ
METAR KCZZ 280352Z AUTO 22004KT 23/08 A3007 RMK AO1 SLP147 T02330078





000
SAUS46 KSGX 280355
MTRSAN
METAR KSAN 280351Z 34005KT 10SM CLR 27/11 A3000 RMK AO2 SLP158
T02670111 $





000
SAUS46 KSGX 280258
MTRCZZ
METAR KCZZ 280252Z AUTO 23009KT 26/08 A3006 RMK AO1 SLP145 T02560078
53008





000
SAUS46 KSGX 280255
MTRSAN
METAR KSAN 280251Z 34006KT 10SM CLR 27/11 A2999 RMK AO2 SLP154
T02720111 53002





000
SAUS46 KSGX 280153
MTRCZZ
METAR KCZZ 280152Z AUTO 23007KT 28/08 A3005 RMK AO1 SLP144 T02830078





000
SAUS46 KSGX 280152
MTRSAN
METAR KSAN 280151Z 30007KT 10SM CLR 27/14 A2998 RMK AO2 SLP153
T02720139





000
SAUS46 KSGX 280053
MTRCZZ
METAR KCZZ 280052Z AUTO 27008KT 31/07 A3004 RMK AO1 SLP139 T03110067





000
SAUS46 KSGX 280052
MTRSAN
METAR KSAN 280051Z 31008KT 10SM CLR 28/13 A2998 RMK AO2 SLP150
T02780128





000
SAUS46 KSGX 272353
MTRCZZ
METAR KCZZ 272352Z AUTO 26013G18KT 32/08 A3003 RMK AO1 SLP137
T03220083 10344 20311 56009





000
SAUS46 KSGX 272352
MTRSAN
METAR KSAN 272351Z 27010KT 10SM FEW050 29/13 A2998 RMK AO2 SLP152
T02890128 10289 20267 56013





000
SAUS46 KSGX 272253
MTRCZZ
METAR KCZZ 272252Z AUTO 29012G19KT 34/09 A3003 RMK AO1 SLP135
T03390089





000
SAUS46 KSGX 272252
MTRSAN
METAR KSAN 272251Z 31008KT 10SM CLR 28/17 A2999 RMK AO2 SLP154
T02830167





000
SAUS46 KSGX 272153
MTRCZZ
METAR KCZZ 272152Z AUTO 27011KT 34/07 A3004 RMK AO1 SLP138 T03390072





000
SAUS46 KSGX 272152
MTRSAN
METAR KSAN 272151Z 29010KT 10SM CLR 28/17 A3000 RMK AO2 SLP159
T02780172





000
SAUS46 KSGX 272053
MTRCZZ
METAR KCZZ 272052Z AUTO 30012G16KT 34/07 A3006 RMK AO1 WSHFT 1958
SLP144 T03440072 58010





000
SAUS46 KSGX 272052
MTRSAN
METAR KSAN 272051Z 30011KT 10SM CLR 28/18 A3002 RMK AO2 SLP164
T02780178 56006





000
SAUS46 KSGX 272016
MTRCZZ
SPECI KCZZ 272015Z AUTO 26006G20KT 34/07 A3007 RMK AO1 WSHFT 1958
T03390067





000
SAUS46 KSGX 271953
MTRCZZ
METAR KCZZ 271952Z AUTO 32011G15KT 34/06 A3007 RMK AO1 SLP147
T03390061





000
SAUS46 KSGX 271952
MTRSAN
METAR KSAN 271951Z 31008KT 10SM CLR 28/17 A3002 RMK AO2 SLP165
T02830172





000
SAUS46 KSGX 271853
MTRCZZ
METAR KCZZ 271852Z AUTO 31008KT 33/06 A3008 RMK AO1 SLP151 T03280056





000
SAUS46 KSGX 271852
MTRSAN
METAR KSAN 271851Z 32008KT 10SM CLR 28/16 A3003 RMK AO2 SLP168
T02830161





000
SAUS46 KSGX 271753
MTRCZZ
METAR KCZZ 271752Z AUTO 28007KT 240V310 31/04 A3009 RMK AO1 SLP156
T03110044 10317 20111 58001





000
SAUS46 KSGX 271752
MTRSAN
METAR KSAN 271751Z 33007KT 10SM CLR 28/16 A3004 RMK AO2 SLP170
T02830161 10283 20211 50005





000
SAUS46 KSGX 271653
MTRCZZ
METAR KCZZ 271652Z AUTO VRB05KT 28/04 A3010 RMK AO1 SLP158 T02830039





000
SAUS46 KSGX 271652
MTRSAN
METAR KSAN 271651Z 30005KT 10SM CLR 26/17 A3004 RMK AO2 SLP171
T02610172





    US Dept of Commerce
    National Oceanic and Atmospheric Administration
    National Weather Service
    1325 East West Highway
    Silver Spring, MD 20910
    Page Author: NWS Internet Services Team
Disclaimer
Information Quality
Credits
Glossary
Privacy Policy
Freedom of Information Act (FOIA)
About Us
Career Opportunities